sensor_id;sensor_type;location;lat;lon;timestamp;temperature;humidity
34283;DHT22;20542;49.828;8.746;2022-09-09T00:01:56;18.10;99.90
34283;DHT22;20542;49.828;8.746;2022-09-09T00:09:45;18.10;99.90
34283;DHT22;20542;49.828;8.746;2022-09-09T00:12:32;18.10;99.90
34283;DHT22;20542;49.828;8.746;2022-09-09T00:15:05;18.10;99.90
34283;DHT22;20542;49.828;8.746;2022-09-09T00:20:34;18.00;99.90
34283;DHT22;20542;49.828;8.746;2022-09-09T00:23:33;18.00;99.90
34283;DHT22;20542;49.828;8.746;2022-09-09T00:26:04;18.00;99.90
34283;DHT22;20542;49.828;8.746;2022-09-09T00:28:39;18.00;99.90
34283;DHT22;20542;49.828;8.746;2022-09-09T00:31:18;17.90;99.90
34283;DHT22;20542;49.828;8.746;2022-09-09T00:33:46;17.90;99.90
34283;DHT22;20542;49.828;8.746;2022-09-09T00:36:16;17.90;99.90
34283;DHT22;20542;49.828;8.746;2022-09-09T00:38:49;18.00;99.90
34283;DHT22;20542;49.828;8.746;2022-09-09T00:41:38;17.90;99.90
34283;DHT22;20542;49.828;8.746;2022-09-09T00:44:20;18.00;99.90
34283;DHT22;20542;49.828;8.746;2022-09-09T00:52:47;18.00;99.90
34283;DHT22;20542;49.828;8.746;2022-09-09T00:58:10;18.00;99.90
34283;DHT22;20542;49.828;8.746;2022-09-09T01:03:20;18.10;99.90
34283;DHT22;20542;49.828;8.746;2022-09-09T01:06:00;18.00;99.90
34283;DHT22;20542;49.828;8.746;2022-09-09T01:08:39;18.10;99.90
34283;DHT22;20542;49.828;8.746;2022-09-09T01:11:14;18.10;99.90
34283;DHT22;20542;49.828;8.746;2022-09-09T01:13:44;18.10;99.90
34283;DHT22;20542;49.828;8.746;2022-09-09T01:16:12;18.10;99.90
34283;DHT22;20542;49.828;8.746;2022-09-09T01:18:43;18.10;99.90
34283;DHT22;20542;49.828;8.746;2022-09-09T01:21:39;18.10;99.90
34283;DHT22;20542;49.828;8.746;2022-09-09T01:24:22;18.10;99.90
34283;DHT22;20542;49.828;8.746;2022-09-09T01:27:00;18.10;99.90
34283;DHT22;20542;49.828;8.746;2022-09-09T01:29:27;18.10;99.90
34283;DHT22;20542;49.828;8.746;2022-09-09T01:32:35;18.10;99.90
34283;DHT22;20542;49.828;8.746;2022-09-09T01:34:40;18.10;99.90
34283;DHT22;20542;49.828;8.746;2022-09-09T01:37:09;18.00;99.90
34283;DHT22;20542;49.828;8.746;2022-09-09T01:39:37;18.00;99.90
34283;DHT22;20542;49.828;8.746;2022-09-09T01:42:06;18.00;99.90
34283;DHT22;20542;49.828;8.746;2022-09-09T01:44:34;18.00;99.90
34283;DHT22;20542;49.828;8.746;2022-09-09T01:47:01;18.00;99.90
34283;DHT22;20542;49.828;8.746;2022-09-09T01:49:26;18.00;99.90
34283;DHT22;20542;49.828;8.746;2022-09-09T01:51:54;18.00;99.90
34283;DHT22;20542;49.828;8.746;2022-09-09T01:54:21;17.90;99.90
34283;DHT22;20542;49.828;8.746;2022-09-09T02:00:05;17.90;99.90
34283;DHT22;20542;49.828;8.746;2022-09-09T02:05:35;17.80;99.90
34283;DHT22;20542;49.828;8.746;2022-09-09T02:08:17;17.80;99.90
34283;DHT22;20542;49.828;8.746;2022-09-09T02:10:55;17.80;99.90
34283;DHT22;20542;49.828;8.746;2022-09-09T02:13:22;17.80;99.90
34283;DHT22;20542;49.828;8.746;2022-09-09T02:18:45;17.70;99.90
34283;DHT22;20542;49.828;8.746;2022-09-09T02:21:12;17.70;99.90
34283;DHT22;20542;49.828;8.746;2022-09-09T02:23:41;17.60;99.90
34283;DHT22;20542;49.828;8.746;2022-09-09T02:26:08;17.70;99.90
34283;DHT22;20542;49.828;8.746;2022-09-09T02:28:37;17.70;99.90
34283;DHT22;20542;49.828;8.746;2022-09-09T02:31:04;17.60;99.90
34283;DHT22;20542;49.828;8.746;2022-09-09T02:33:35;17.70;99.90
34283;DHT22;20542;49.828;8.746;2022-09-09T02:36:03;17.70;99.90
34283;DHT22;20542;49.828;8.746;2022-09-09T02:38:35;17.70;99.90
34283;DHT22;20542;49.828;8.746;2022-09-09T02:41:01;17.70;99.90
34283;DHT22;20542;49.828;8.746;2022-09-09T02:43:34;17.70;99.90
34283;DHT22;20542;49.828;8.746;2022-09-09T02:48:41;17.70;99.90
34283;DHT22;20542;49.828;8.746;2022-09-09T02:54:09;17.70;99.90
34283;DHT22;20542;49.828;8.746;2022-09-09T02:56:40;17.70;99.90
34283;DHT22;20542;49.828;8.746;2022-09-09T02:59:07;17.70;99.90
34283;DHT22;20542;49.828;8.746;2022-09-09T03:01:32;17.60;99.90
34283;DHT22;20542;49.828;8.746;2022-09-09T03:03:58;17.70;99.90
34283;DHT22;20542;49.828;8.746;2022-09-09T03:06:23;17.60;99.90
34283;DHT22;20542;49.828;8.746;2022-09-09T03:08:49;17.60;99.90
34283;DHT22;20542;49.828;8.746;2022-09-09T03:11:16;17.60;99.90
34283;DHT22;20542;49.828;8.746;2022-09-09T03:13:41;17.60;99.90
34283;DHT22;20542;49.828;8.746;2022-09-09T03:16:07;17.60;99.90
34283;DHT22;20542;49.828;8.746;2022-09-09T03:18:32;17.70;99.90
34283;DHT22;20542;49.828;8.746;2022-09-09T03:21:00;17.60;99.90
34283;DHT22;20542;49.828;8.746;2022-09-09T03:23:25;17.60;99.90
34283;DHT22;20542;49.828;8.746;2022-09-09T03:25:51;17.60;99.90
34283;DHT22;20542;49.828;8.746;2022-09-09T03:28:17;17.50;99.90
34283;DHT22;20542;49.828;8.746;2022-09-09T03:30:44;17.60;99.90
34283;DHT22;20542;49.828;8.746;2022-09-09T03:33:09;17.60;99.90
34283;DHT22;20542;49.828;8.746;2022-09-09T03:35:35;17.60;99.90
34283;DHT22;20542;49.828;8.746;2022-09-09T03:38:01;17.60;99.90
34283;DHT22;20542;49.828;8.746;2022-09-09T03:40:27;17.50;99.90
34283;DHT22;20542;49.828;8.746;2022-09-09T03:42:52;17.50;99.90
34283;DHT22;20542;49.828;8.746;2022-09-09T03:45:18;17.40;99.90
34283;DHT22;20542;49.828;8.746;2022-09-09T03:47:43;17.40;99.90
34283;DHT22;20542;49.828;8.746;2022-09-09T03:50:09;17.30;99.90
34283;DHT22;20542;49.828;8.746;2022-09-09T03:52:37;17.30;99.90
34283;DHT22;20542;49.828;8.746;2022-09-09T03:55:03;17.30;99.90
34283;DHT22;20542;49.828;8.746;2022-09-09T03:57:29;17.30;99.90
34283;DHT22;20542;49.828;8.746;2022-09-09T03:59:55;17.30;99.90
34283;DHT22;20542;49.828;8.746;2022-09-09T04:02:21;17.30;99.90
34283;DHT22;20542;49.828;8.746;2022-09-09T04:04:46;17.30;99.90
34283;DHT22;20542;49.828;8.746;2022-09-09T04:07:12;17.30;99.90
34283;DHT22;20542;49.828;8.746;2022-09-09T04:09:38;17.30;99.90
34283;DHT22;20542;49.828;8.746;2022-09-09T04:12:04;17.30;99.90
34283;DHT22;20542;49.828;8.746;2022-09-09T04:14:30;17.30;99.90
34283;DHT22;20542;49.828;8.746;2022-09-09T04:16:55;17.30;99.90
34283;DHT22;20542;49.828;8.746;2022-09-09T04:19:22;17.20;99.90
34283;DHT22;20542;49.828;8.746;2022-09-09T04:21:48;17.30;99.90
34283;DHT22;20542;49.828;8.746;2022-09-09T04:24:15;17.30;99.90
34283;DHT22;20542;49.828;8.746;2022-09-09T04:26:41;17.20;99.90
34283;DHT22;20542;49.828;8.746;2022-09-09T04:29:07;17.20;99.90
34283;DHT22;20542;49.828;8.746;2022-09-09T04:31:33;17.20;99.90
34283;DHT22;20542;49.828;8.746;2022-09-09T04:33:59;17.30;99.90
34283;DHT22;20542;49.828;8.746;2022-09-09T04:36:31;17.30;99.90
34283;DHT22;20542;49.828;8.746;2022-09-09T04:38:57;17.20;99.90
34283;DHT22;20542;49.828;8.746;2022-09-09T04:41:23;17.10;99.90
34283;DHT22;20542;49.828;8.746;2022-09-09T04:43:49;17.10;99.90
34283;DHT22;20542;49.828;8.746;2022-09-09T04:46:14;17.10;99.90
34283;DHT22;20542;49.828;8.746;2022-09-09T04:48:42;17.00;99.90
34283;DHT22;20542;49.828;8.746;2022-09-09T04:51:12;17.10;99.90
34283;DHT22;20542;49.828;8.746;2022-09-09T04:53:38;17.00;99.90
34283;DHT22;20542;49.828;8.746;2022-09-09T04:56:11;17.00;99.90
34283;DHT22;20542;49.828;8.746;2022-09-09T04:58:38;16.90;99.90
34283;DHT22;20542;49.828;8.746;2022-09-09T05:01:12;16.90;99.90
34283;DHT22;20542;49.828;8.746;2022-09-09T05:03:38;16.90;99.90
34283;DHT22;20542;49.828;8.746;2022-09-09T05:06:08;16.80;99.90
34283;DHT22;20542;49.828;8.746;2022-09-09T05:08:36;16.80;99.90
34283;DHT22;20542;49.828;8.746;2022-09-09T05:11:02;16.80;99.90
34283;DHT22;20542;49.828;8.746;2022-09-09T05:13:28;16.70;99.90
34283;DHT22;20542;49.828;8.746;2022-09-09T05:15:54;16.70;99.90
34283;DHT22;20542;49.828;8.746;2022-09-09T05:18:20;16.70;99.90
34283;DHT22;20542;49.828;8.746;2022-09-09T05:20:48;16.80;99.90
34283;DHT22;20542;49.828;8.746;2022-09-09T05:23:14;16.70;99.90
34283;DHT22;20542;49.828;8.746;2022-09-09T05:25:40;16.70;99.90
34283;DHT22;20542;49.828;8.746;2022-09-09T05:28:09;16.70;99.90
34283;DHT22;20542;49.828;8.746;2022-09-09T05:30:34;16.80;99.90
34283;DHT22;20542;49.828;8.746;2022-09-09T05:33:00;16.80;99.90
34283;DHT22;20542;49.828;8.746;2022-09-09T05:35:26;16.80;99.90
34283;DHT22;20542;49.828;8.746;2022-09-09T05:37:52;16.90;99.90
34283;DHT22;20542;49.828;8.746;2022-09-09T05:40:17;17.00;99.90
34283;DHT22;20542;49.828;8.746;2022-09-09T05:42:43;17.00;99.90
34283;DHT22;20542;49.828;8.746;2022-09-09T05:45:09;17.00;99.90
34283;DHT22;20542;49.828;8.746;2022-09-09T05:47:35;17.00;99.90
34283;DHT22;20542;49.828;8.746;2022-09-09T05:50:02;17.00;99.90
34283;DHT22;20542;49.828;8.746;2022-09-09T05:52:28;17.00;99.90
34283;DHT22;20542;49.828;8.746;2022-09-09T05:54:54;17.10;99.90
34283;DHT22;20542;49.828;8.746;2022-09-09T05:57:21;17.00;99.90
34283;DHT22;20542;49.828;8.746;2022-09-09T05:59:47;17.10;99.90
34283;DHT22;20542;49.828;8.746;2022-09-09T06:02:12;17.10;99.90
34283;DHT22;20542;49.828;8.746;2022-09-09T06:04:38;17.20;99.90
34283;DHT22;20542;49.828;8.746;2022-09-09T06:07:05;17.30;99.90
34283;DHT22;20542;49.828;8.746;2022-09-09T06:09:31;17.40;99.90
34283;DHT22;20542;49.828;8.746;2022-09-09T06:11:57;17.50;99.90
34283;DHT22;20542;49.828;8.746;2022-09-09T06:14:23;17.50;99.90
34283;DHT22;20542;49.828;8.746;2022-09-09T06:16:50;17.60;99.90
34283;DHT22;20542;49.828;8.746;2022-09-09T06:19:16;17.60;99.90
34283;DHT22;20542;49.828;8.746;2022-09-09T06:21:41;17.70;99.90
34283;DHT22;20542;49.828;8.746;2022-09-09T06:24:07;17.80;99.90
34283;DHT22;20542;49.828;8.746;2022-09-09T06:26:35;17.70;99.90
34283;DHT22;20542;49.828;8.746;2022-09-09T06:29:02;17.90;99.90
34283;DHT22;20542;49.828;8.746;2022-09-09T06:31:30;18.20;99.90
34283;DHT22;20542;49.828;8.746;2022-09-09T06:33:57;18.20;99.90
34283;DHT22;20542;49.828;8.746;2022-09-09T06:36:25;18.20;99.90
34283;DHT22;20542;49.828;8.746;2022-09-09T06:38:50;18.30;99.90
34283;DHT22;20542;49.828;8.746;2022-09-09T06:41:18;18.20;99.90
34283;DHT22;20542;49.828;8.746;2022-09-09T06:43:44;18.60;99.90
34283;DHT22;20542;49.828;8.746;2022-09-09T06:46:19;19.00;99.90
34283;DHT22;20542;49.828;8.746;2022-09-09T06:48:45;19.20;99.90
34283;DHT22;20542;49.828;8.746;2022-09-09T06:51:20;19.30;99.90
34283;DHT22;20542;49.828;8.746;2022-09-09T06:53:53;19.20;99.90
34283;DHT22;20542;49.828;8.746;2022-09-09T06:56:23;19.20;99.90
34283;DHT22;20542;49.828;8.746;2022-09-09T06:58:50;19.20;99.90
34283;DHT22;20542;49.828;8.746;2022-09-09T07:01:19;19.20;99.90
34283;DHT22;20542;49.828;8.746;2022-09-09T07:03:47;19.20;99.90
34283;DHT22;20542;49.828;8.746;2022-09-09T07:06:29;19.10;99.90
34283;DHT22;20542;49.828;8.746;2022-09-09T07:09:04;19.00;99.90
34283;DHT22;20542;49.828;8.746;2022-09-09T07:11:32;19.00;99.90
34283;DHT22;20542;49.828;8.746;2022-09-09T07:13:59;18.90;99.90
34283;DHT22;20542;49.828;8.746;2022-09-09T07:17:32;18.80;99.90
34283;DHT22;20542;49.828;8.746;2022-09-09T07:19:57;18.90;99.90
34283;DHT22;20542;49.828;8.746;2022-09-09T07:22:23;18.70;99.90
34283;DHT22;20542;49.828;8.746;2022-09-09T07:24:48;18.70;99.90
34283;DHT22;20542;49.828;8.746;2022-09-09T07:27:14;18.70;99.90
34283;DHT22;20542;49.828;8.746;2022-09-09T07:29:40;18.70;99.90
34283;DHT22;20542;49.828;8.746;2022-09-09T07:32:05;18.70;99.90
34283;DHT22;20542;49.828;8.746;2022-09-09T07:34:31;18.60;99.90
34283;DHT22;20542;49.828;8.746;2022-09-09T07:36:57;18.70;99.90
34283;DHT22;20542;49.828;8.746;2022-09-09T07:39:22;18.80;99.90
34283;DHT22;20542;49.828;8.746;2022-09-09T07:41:48;18.70;99.90
34283;DHT22;20542;49.828;8.746;2022-09-09T07:44:17;18.70;99.90
34283;DHT22;20542;49.828;8.746;2022-09-09T07:46:43;18.60;99.90
34283;DHT22;20542;49.828;8.746;2022-09-09T07:49:10;18.50;99.90
34283;DHT22;20542;49.828;8.746;2022-09-09T07:51:38;18.50;99.90
34283;DHT22;20542;49.828;8.746;2022-09-09T07:54:06;18.50;99.90
34283;DHT22;20542;49.828;8.746;2022-09-09T07:56:34;18.40;99.90
34283;DHT22;20542;49.828;8.746;2022-09-09T07:59:01;18.40;99.90
34283;DHT22;20542;49.828;8.746;2022-09-09T08:01:42;18.40;99.90
34283;DHT22;20542;49.828;8.746;2022-09-09T08:04:15;18.30;99.90
34283;DHT22;20542;49.828;8.746;2022-09-09T08:06:46;18.50;99.90
34283;DHT22;20542;49.828;8.746;2022-09-09T08:09:13;18.50;99.90
34283;DHT22;20542;49.828;8.746;2022-09-09T08:11:39;18.50;99.90
34283;DHT22;20542;49.828;8.746;2022-09-09T08:14:07;18.60;99.90
34283;DHT22;20542;49.828;8.746;2022-09-09T08:16:35;18.50;99.90
34283;DHT22;20542;49.828;8.746;2022-09-09T08:19:02;18.70;99.90
34283;DHT22;20542;49.828;8.746;2022-09-09T08:21:30;18.80;99.90
34283;DHT22;20542;49.828;8.746;2022-09-09T08:23:58;18.90;99.90
34283;DHT22;20542;49.828;8.746;2022-09-09T08:26:34;19.10;99.90
34283;DHT22;20542;49.828;8.746;2022-09-09T08:29:00;19.20;99.90
34283;DHT22;20542;49.828;8.746;2022-09-09T08:33:53;20.10;99.90
34283;DHT22;20542;49.828;8.746;2022-09-09T08:36:22;20.10;99.90
34283;DHT22;20542;49.828;8.746;2022-09-09T08:38:49;20.20;99.90
34283;DHT22;20542;49.828;8.746;2022-09-09T08:41:35;20.30;99.90
34283;DHT22;20542;49.828;8.746;2022-09-09T08:47:10;20.10;99.90
34283;DHT22;20542;49.828;8.746;2022-09-09T08:53:24;19.60;99.90
34283;DHT22;20542;49.828;8.746;2022-09-09T08:55:57;19.50;99.90
34283;DHT22;20542;49.828;8.746;2022-09-09T08:58:28;19.60;99.90
34283;DHT22;20542;49.828;8.746;2022-09-09T09:08:51;19.90;99.90
34283;DHT22;20542;49.828;8.746;2022-09-09T09:11:19;19.90;99.90
34283;DHT22;20542;49.828;8.746;2022-09-09T09:13:50;20.10;99.90
34283;DHT22;20542;49.828;8.746;2022-09-09T09:17:04;20.40;99.90
34283;DHT22;20542;49.828;8.746;2022-09-09T09:19:14;20.40;99.90
34283;DHT22;20542;49.828;8.746;2022-09-09T09:21:45;20.50;99.90
34283;DHT22;20542;49.828;8.746;2022-09-09T09:27:25;20.90;99.90
34283;DHT22;20542;49.828;8.746;2022-09-09T09:29:57;20.90;99.90
34283;DHT22;20542;49.828;8.746;2022-09-09T09:32:24;20.80;99.90
34283;DHT22;20542;49.828;8.746;2022-09-09T09:34:55;20.90;99.90
34283;DHT22;20542;49.828;8.746;2022-09-09T09:37:28;21.00;99.90
34283;DHT22;20542;49.828;8.746;2022-09-09T09:39:54;21.00;99.90
34283;DHT22;20542;49.828;8.746;2022-09-09T09:42:20;21.20;99.90
34283;DHT22;20542;49.828;8.746;2022-09-09T09:44:46;21.20;99.90
34283;DHT22;20542;49.828;8.746;2022-09-09T09:47:22;21.30;99.90
34283;DHT22;20542;49.828;8.746;2022-09-09T09:49:52;21.20;99.90
34283;DHT22;20542;49.828;8.746;2022-09-09T09:52:22;21.10;99.90
34283;DHT22;20542;49.828;8.746;2022-09-09T09:54:49;21.20;99.90
34283;DHT22;20542;49.828;8.746;2022-09-09T09:57:16;20.90;99.90
34283;DHT22;20542;49.828;8.746;2022-09-09T09:59:42;20.70;99.90
34283;DHT22;20542;49.828;8.746;2022-09-09T10:02:19;20.60;99.90
34283;DHT22;20542;49.828;8.746;2022-09-09T10:04:45;20.60;99.90
34283;DHT22;20542;49.828;8.746;2022-09-09T10:07:22;20.50;99.90
34283;DHT22;20542;49.828;8.746;2022-09-09T10:09:53;20.60;99.90
34283;DHT22;20542;49.828;8.746;2022-09-09T10:12:44;20.80;99.90
34283;DHT22;20542;49.828;8.746;2022-09-09T10:23:42;21.10;99.90
34283;DHT22;20542;49.828;8.746;2022-09-09T10:29:13;21.30;99.90
34283;DHT22;20542;49.828;8.746;2022-09-09T10:31:57;21.40;99.90
34283;DHT22;20542;49.828;8.746;2022-09-09T10:37:11;21.10;99.90
34283;DHT22;20542;49.828;8.746;2022-09-09T10:39:42;21.00;99.90
34283;DHT22;20542;49.828;8.746;2022-09-09T10:42:15;21.20;99.90
34283;DHT22;20542;49.828;8.746;2022-09-09T10:47:36;21.30;99.90
34283;DHT22;20542;49.828;8.746;2022-09-09T10:50:20;21.50;99.90
34283;DHT22;20542;49.828;8.746;2022-09-09T10:53:01;21.60;99.90
34283;DHT22;20542;49.828;8.746;2022-09-09T10:55:35;21.70;99.90
34283;DHT22;20542;49.828;8.746;2022-09-09T10:58:03;21.60;99.90
34283;DHT22;20542;49.828;8.746;2022-09-09T11:00:45;21.40;99.90
34283;DHT22;20542;49.828;8.746;2022-09-09T11:03:28;21.50;99.90
34283;DHT22;20542;49.828;8.746;2022-09-09T11:06:00;21.80;99.90
34283;DHT22;20542;49.828;8.746;2022-09-09T11:08:30;22.10;99.90
34283;DHT22;20542;49.828;8.746;2022-09-09T11:16:42;22.30;99.90
34283;DHT22;20542;49.828;8.746;2022-09-09T11:19:38;22.40;99.90
34283;DHT22;20542;49.828;8.746;2022-09-09T11:25:20;22.30;99.90
34283;DHT22;20542;49.828;8.746;2022-09-09T11:36:27;22.60;99.90
34283;DHT22;20542;49.828;8.746;2022-09-09T11:41:36;22.90;99.90
34283;DHT22;20542;49.828;8.746;2022-09-09T11:44:16;23.00;99.90
34283;DHT22;20542;49.828;8.746;2022-09-09T11:46:44;23.10;99.90
34283;DHT22;20542;49.828;8.746;2022-09-09T11:49:40;23.20;99.90
34283;DHT22;20542;49.828;8.746;2022-09-09T11:52:37;23.20;99.90
34283;DHT22;20542;49.828;8.746;2022-09-09T11:55:30;22.80;99.90
34283;DHT22;20542;49.828;8.746;2022-09-09T11:58:18;22.80;99.90
34283;DHT22;20542;49.828;8.746;2022-09-09T12:00:46;22.80;99.90
34283;DHT22;20542;49.828;8.746;2022-09-09T12:06:19;22.70;99.90
34283;DHT22;20542;49.828;8.746;2022-09-09T12:08:54;22.60;99.90
34283;DHT22;20542;49.828;8.746;2022-09-09T12:11:29;22.50;99.90
34283;DHT22;20542;49.828;8.746;2022-09-09T12:13:58;22.30;99.90
34283;DHT22;20542;49.828;8.746;2022-09-09T12:16:34;22.20;99.90
34283;DHT22;20542;49.828;8.746;2022-09-09T12:24:11;22.10;99.90
34283;DHT22;20542;49.828;8.746;2022-09-09T12:26:45;22.00;99.90
34283;DHT22;20542;49.828;8.746;2022-09-09T12:29:32;22.00;99.90
34283;DHT22;20542;49.828;8.746;2022-09-09T12:32:09;22.00;99.90
34283;DHT22;20542;49.828;8.746;2022-09-09T12:34:44;21.90;99.90
34283;DHT22;20542;49.828;8.746;2022-09-09T12:38:17;21.80;99.90
34283;DHT22;20542;49.828;8.746;2022-09-09T12:40:28;21.80;99.90
34283;DHT22;20542;49.828;8.746;2022-09-09T12:42:54;21.70;99.90
34283;DHT22;20542;49.828;8.746;2022-09-09T12:45:26;21.70;99.90
34283;DHT22;20542;49.828;8.746;2022-09-09T12:50:30;21.60;99.90
34283;DHT22;20542;49.828;8.746;2022-09-09T12:52:58;21.60;99.90
34283;DHT22;20542;49.828;8.746;2022-09-09T12:55:28;21.60;99.90
34283;DHT22;20542;49.828;8.746;2022-09-09T12:57:55;21.80;99.90
34283;DHT22;20542;49.828;8.746;2022-09-09T13:00:23;21.70;99.90
34283;DHT22;20542;49.828;8.746;2022-09-09T13:02:58;21.90;99.90
34283;DHT22;20542;49.828;8.746;2022-09-09T13:05:25;21.90;99.90
34283;DHT22;20542;49.828;8.746;2022-09-09T13:07:51;22.00;99.90
34283;DHT22;20542;49.828;8.746;2022-09-09T13:10:24;22.00;99.90
34283;DHT22;20542;49.828;8.746;2022-09-09T13:12:52;22.00;99.90
34283;DHT22;20542;49.828;8.746;2022-09-09T13:15:22;22.10;99.90
34283;DHT22;20542;49.828;8.746;2022-09-09T13:17:51;21.80;99.90
34283;DHT22;20542;49.828;8.746;2022-09-09T13:20:19;21.70;99.90
34283;DHT22;20542;49.828;8.746;2022-09-09T13:22:45;21.60;99.90
34283;DHT22;20542;49.828;8.746;2022-09-09T13:27:52;21.50;99.90
34283;DHT22;20542;49.828;8.746;2022-09-09T13:30:25;21.50;99.90
34283;DHT22;20542;49.828;8.746;2022-09-09T13:36:04;21.50;99.90
34283;DHT22;20542;49.828;8.746;2022-09-09T13:38:35;21.40;99.90
34283;DHT22;20542;49.828;8.746;2022-09-09T13:41:08;21.40;99.90
34283;DHT22;20542;49.828;8.746;2022-09-09T13:43:46;21.30;99.90
34283;DHT22;20542;49.828;8.746;2022-09-09T13:49:03;21.20;99.90
34283;DHT22;20542;49.828;8.746;2022-09-09T13:51:45;21.10;99.90
34283;DHT22;20542;49.828;8.746;2022-09-09T13:54:14;20.90;99.90
34283;DHT22;20542;49.828;8.746;2022-09-09T13:56:41;20.80;99.90
34283;DHT22;20542;49.828;8.746;2022-09-09T13:59:15;20.80;99.90
34283;DHT22;20542;49.828;8.746;2022-09-09T14:01:41;20.80;99.90
34283;DHT22;20542;49.828;8.746;2022-09-09T14:04:07;20.80;99.90
34283;DHT22;20542;49.828;8.746;2022-09-09T14:06:35;21.00;99.90
34283;DHT22;20542;49.828;8.746;2022-09-09T14:09:11;21.20;99.90
34283;DHT22;20542;49.828;8.746;2022-09-09T14:11:37;21.10;99.90
34283;DHT22;20542;49.828;8.746;2022-09-09T14:14:03;21.00;99.90
34283;DHT22;20542;49.828;8.746;2022-09-09T14:16:29;21.00;99.90
34283;DHT22;20542;49.828;8.746;2022-09-09T14:18:55;21.00;99.90
34283;DHT22;20542;49.828;8.746;2022-09-09T14:21:21;20.90;99.90
34283;DHT22;20542;49.828;8.746;2022-09-09T14:23:47;20.90;99.90
34283;DHT22;20542;49.828;8.746;2022-09-09T14:26:14;20.80;99.90
34283;DHT22;20542;49.828;8.746;2022-09-09T14:28:39;20.90;99.90
34283;DHT22;20542;49.828;8.746;2022-09-09T14:31:06;21.20;99.90
34283;DHT22;20542;49.828;8.746;2022-09-09T14:33:31;21.40;99.90
34283;DHT22;20542;49.828;8.746;2022-09-09T14:36:02;21.50;99.90
34283;DHT22;20542;49.828;8.746;2022-09-09T14:38:33;21.50;99.90
34283;DHT22;20542;49.828;8.746;2022-09-09T14:40:59;21.50;99.90
34283;DHT22;20542;49.828;8.746;2022-09-09T14:43:25;21.40;99.90
34283;DHT22;20542;49.828;8.746;2022-09-09T14:45:52;21.30;99.90
34283;DHT22;20542;49.828;8.746;2022-09-09T14:48:17;21.20;99.90
34283;DHT22;20542;49.828;8.746;2022-09-09T14:50:43;21.10;99.90
34283;DHT22;20542;49.828;8.746;2022-09-09T14:53:09;21.20;99.90
34283;DHT22;20542;49.828;8.746;2022-09-09T14:55:36;21.20;99.90
34283;DHT22;20542;49.828;8.746;2022-09-09T14:58:02;21.30;99.90
34283;DHT22;20542;49.828;8.746;2022-09-09T15:00:28;21.20;99.90
34283;DHT22;20542;49.828;8.746;2022-09-09T15:02:54;21.20;99.90
34283;DHT22;20542;49.828;8.746;2022-09-09T15:05:20;21.10;99.90
34283;DHT22;20542;49.828;8.746;2022-09-09T15:07:46;21.10;99.90
34283;DHT22;20542;49.828;8.746;2022-09-09T15:10:13;20.90;99.90
34283;DHT22;20542;49.828;8.746;2022-09-09T15:12:39;20.90;99.90
34283;DHT22;20542;49.828;8.746;2022-09-09T15:15:05;20.90;99.90
34283;DHT22;20542;49.828;8.746;2022-09-09T15:17:31;20.80;99.90
34283;DHT22;20542;49.828;8.746;2022-09-09T15:19:56;20.80;99.90
34283;DHT22;20542;49.828;8.746;2022-09-09T15:22:22;20.80;99.90
34283;DHT22;20542;49.828;8.746;2022-09-09T15:24:49;20.70;99.90
34283;DHT22;20542;49.828;8.746;2022-09-09T15:27:15;20.60;99.90
34283;DHT22;20542;49.828;8.746;2022-09-09T15:29:41;20.60;99.90
34283;DHT22;20542;49.828;8.746;2022-09-09T15:32:07;20.50;99.90
34283;DHT22;20542;49.828;8.746;2022-09-09T15:34:33;20.40;99.90
34283;DHT22;20542;49.828;8.746;2022-09-09T15:36:58;20.30;99.90
34283;DHT22;20542;49.828;8.746;2022-09-09T15:39:25;20.30;99.90
34283;DHT22;20542;49.828;8.746;2022-09-09T15:41:51;20.40;99.90
34283;DHT22;20542;49.828;8.746;2022-09-09T15:44:17;20.40;99.90
34283;DHT22;20542;49.828;8.746;2022-09-09T15:46:51;20.40;99.90
34283;DHT22;20542;49.828;8.746;2022-09-09T15:49:21;20.20;99.90
34283;DHT22;20542;49.828;8.746;2022-09-09T15:51:58;20.20;99.90
34283;DHT22;20542;49.828;8.746;2022-09-09T15:54:25;20.10;99.90
34283;DHT22;20542;49.828;8.746;2022-09-09T15:56:56;20.20;99.90
34283;DHT22;20542;49.828;8.746;2022-09-09T15:59:23;20.20;99.90
34283;DHT22;20542;49.828;8.746;2022-09-09T16:01:49;20.20;99.90
34283;DHT22;20542;49.828;8.746;2022-09-09T16:04:18;20.20;99.90
34283;DHT22;20542;49.828;8.746;2022-09-09T16:06:51;20.30;99.90
34283;DHT22;20542;49.828;8.746;2022-09-09T16:09:17;20.20;99.90
34283;DHT22;20542;49.828;8.746;2022-09-09T16:11:42;20.10;99.90
34283;DHT22;20542;49.828;8.746;2022-09-09T16:14:08;20.00;99.90
34283;DHT22;20542;49.828;8.746;2022-09-09T16:16:34;20.00;99.90
34283;DHT22;20542;49.828;8.746;2022-09-09T16:19:06;19.90;99.90
34283;DHT22;20542;49.828;8.746;2022-09-09T16:21:35;19.80;99.90
34283;DHT22;20542;49.828;8.746;2022-09-09T16:24:03;19.90;99.90
34283;DHT22;20542;49.828;8.746;2022-09-09T16:26:31;19.80;99.90
34283;DHT22;20542;49.828;8.746;2022-09-09T16:28:57;19.80;99.90
34283;DHT22;20542;49.828;8.746;2022-09-09T16:31:27;19.80;99.90
34283;DHT22;20542;49.828;8.746;2022-09-09T16:33:53;19.80;99.90
34283;DHT22;20542;49.828;8.746;2022-09-09T16:36:24;19.80;99.90
34283;DHT22;20542;49.828;8.746;2022-09-09T16:38:54;19.80;99.90
34283;DHT22;20542;49.828;8.746;2022-09-09T16:41:20;19.70;99.90
34283;DHT22;20542;49.828;8.746;2022-09-09T16:43:47;19.60;99.90
34283;DHT22;20542;49.828;8.746;2022-09-09T16:46:17;19.60;99.90
34283;DHT22;20542;49.828;8.746;2022-09-09T16:48:44;19.60;99.90
34283;DHT22;20542;49.828;8.746;2022-09-09T16:51:21;19.50;99.90
34283;DHT22;20542;49.828;8.746;2022-09-09T16:53:48;19.50;99.90
34283;DHT22;20542;49.828;8.746;2022-09-09T16:56:17;19.40;99.90
34283;DHT22;20542;49.828;8.746;2022-09-09T16:58:48;19.40;99.90
34283;DHT22;20542;49.828;8.746;2022-09-09T17:01:14;19.40;99.90
34283;DHT22;20542;49.828;8.746;2022-09-09T17:03:40;19.20;99.90
34283;DHT22;20542;49.828;8.746;2022-09-09T17:06:13;19.20;99.90
34283;DHT22;20542;49.828;8.746;2022-09-09T17:08:40;19.10;99.90
34283;DHT22;20542;49.828;8.746;2022-09-09T17:11:17;19.10;99.90
34283;DHT22;20542;49.828;8.746;2022-09-09T17:13:47;19.00;99.90
34283;DHT22;20542;49.828;8.746;2022-09-09T17:16:14;19.00;99.90
34283;DHT22;20542;49.828;8.746;2022-09-09T17:18:40;19.00;99.90
34283;DHT22;20542;49.828;8.746;2022-09-09T17:21:11;18.90;99.90
34283;DHT22;20542;49.828;8.746;2022-09-09T17:23:39;19.00;99.90
34283;DHT22;20542;49.828;8.746;2022-09-09T17:26:06;18.90;99.90
34283;DHT22;20542;49.828;8.746;2022-09-09T17:28:36;18.90;99.90
34283;DHT22;20542;49.828;8.746;2022-09-09T17:31:04;18.90;99.90
34283;DHT22;20542;49.828;8.746;2022-09-09T17:33:32;18.80;99.90
34283;DHT22;20542;49.828;8.746;2022-09-09T17:35:59;18.80;99.90
34283;DHT22;20542;49.828;8.746;2022-09-09T17:38:26;18.70;99.90